ロサンゼルス の空港の天気 - METARとTAF

ロサンゼルス国際空港 ( KLAX / LAX ) - アメリカ カリフォルニア州ロサンゼルス
飛行場実況気象(Metar)
観測時間04/24 19:44 PDT (04/25 02:44 UTC)
風向・風速西南西 4m/s
視程1600m
天気現象もや
全天を覆う雲 雲底高度 150m
気温14.4℃
湿度90%
気圧1014hPa
METARKLAX 250244Z 25007KT 1SM R25L/P6000FT BR OVC005 14/13 A2995 RMK AO2 T01440128
過去の天気等 Google飛行場航空写真 Wunderground天気予報

過去48時間のMETAR

飛行場予報(TAF)
発表時間: 4/24 19:31 PDT (4/25 02:31 UTC)
予報対象時間: 24日20時 PDT ~ 25日23時 PDT
風向・風速西 4m/s
視程3220m
天気現象もや
全天を覆う雲 雲底高度 180m
24日21時 PDT から
風向・風速不定 2m/s
視程6440m
天気現象もや
全天を覆う雲 雲底高度 180m
25日10時 PDT から
風向・風速不定 2m/s
視程10km以上
全天を覆う雲 雲底高度 300m
25日13時 PDT から
風向・風速西 5m/s
視程10km以上
全天の4割程度の雲 雲底高度 300m
25日21時 PDT から
風向・風速不定 2m/s
視程10km以上
全天の8割程度の雲 雲底高度 300m
KLAX 250231Z 2503/2606 26008KT 2SM BR OVC006
FM250400 VRB03KT 4SM BR OVC006
FM251700 VRB03KT P6SM OVC010
FM252000 27010KT P6SM SCT010
FM260400 VRB03KT P6SM BKN010